createdAt,value
2023-03-18T00:00:14.561Z,16.7
2023-03-18T00:02:09.621Z,17.7
2023-03-18T00:04:10.338Z,15.0
2023-03-18T00:06:11.240Z,15.7
2023-03-18T00:08:11.216Z,13.0
2023-03-18T00:10:10.949Z,15.3
2023-03-18T00:12:09.687Z,17.8
2023-03-18T00:14:08.776Z,15.6
2023-03-18T00:16:10.472Z,15.9
2023-03-18T00:18:08.144Z,12.5
2023-03-18T00:20:09.158Z,12.9
2023-03-18T00:24:07.282Z,14.3
2023-03-18T00:30:08.022Z,16.5
2023-03-18T00:32:06.159Z,12.3
2023-03-18T00:34:07.086Z,14.4
2023-03-18T00:36:08.978Z,15.4
2023-03-18T00:38:07.868Z,14.9
2023-03-18T00:42:09.773Z,14.4
2023-03-18T00:44:04.947Z,16.4
2023-03-18T00:46:04.492Z,13.7
2023-03-18T00:48:04.455Z,11.8
2023-03-18T00:50:05.202Z,15.0
2023-03-18T00:52:03.923Z,15.1
2023-03-18T00:54:06.309Z,15.5
2023-03-18T00:56:04.910Z,14.3
2023-03-18T00:58:03.198Z,15.0
2023-03-18T01:00:06.047Z,16.2
2023-03-18T01:02:03.008Z,15.8
2023-03-18T01:04:03.586Z,16.6
2023-03-18T01:06:03.284Z,16.4
2023-03-18T01:08:02.162Z,16.1
2023-03-18T01:10:01.701Z,17.9
2023-03-18T01:12:01.779Z,13.7
2023-03-18T01:14:02.603Z,17.6
2023-03-18T01:16:02.261Z,16.6
2023-03-18T01:18:01.086Z,17.7
2023-03-18T01:20:02.928Z,16.4
2023-03-18T01:22:01.338Z,15.8
2023-03-18T01:26:00.595Z,18.0
2023-03-18T01:29:59.862Z,21.3
2023-03-18T01:31:59.452Z,16.9
2023-03-18T01:33:59.188Z,18.8
2023-03-18T01:36:01.372Z,16.9
2023-03-18T01:39:58.394Z,19.0
2023-03-18T01:41:58.597Z,14.2
2023-03-18T01:43:58.777Z,15.2
2023-03-18T01:45:59.476Z,18.5
2023-03-18T01:49:57.054Z,18.5
2023-03-18T01:51:59.198Z,21.0
2023-03-18T01:53:59.254Z,18.6
2023-03-18T01:55:57.271Z,17.5
2023-03-18T01:57:57.486Z,16.0
2023-03-18T01:59:57.011Z,17.5
2023-03-18T02:02:01.367Z,19.0
2023-03-18T02:03:55.711Z,19.3
2023-03-18T02:05:55.888Z,21.8
2023-03-18T02:07:54.875Z,17.6
2023-03-18T02:11:54.983Z,19.1
2023-03-18T02:13:54.274Z,19.8
2023-03-18T02:15:59.508Z,19.2
2023-03-18T02:17:58.543Z,18.7
2023-03-18T02:20:02.005Z,19.1
2023-03-18T02:22:02.989Z,19.9
2023-03-18T02:24:02.187Z,20.5
2023-03-18T02:25:58.223Z,19.9
2023-03-18T02:27:56.256Z,19.6
2023-03-18T02:29:56.379Z,18.7
2023-03-18T02:31:54.465Z,19.5
2023-03-18T02:33:52.827Z,19.7
2023-03-18T02:35:55.909Z,20.4
2023-03-18T02:39:50.981Z,19.0
2023-03-18T02:43:50.615Z,18.0
2023-03-18T02:46:03.909Z,19.9
2023-03-18T02:47:51.861Z,18.1
2023-03-18T02:49:50.678Z,18.8
2023-03-18T02:51:50.602Z,18.4
2023-03-18T02:55:49.206Z,19.7
2023-03-18T02:57:48.804Z,18.7
2023-03-18T02:59:48.412Z,17.3
2023-03-18T03:01:50.586Z,16.7
2023-03-18T03:03:48.091Z,16.4
2023-03-18T03:05:47.754Z,16.5
2023-03-18T03:07:47.631Z,18.7
2023-03-18T03:09:47.337Z,17.1
2023-03-18T03:11:47.240Z,18.3
2023-03-18T03:13:46.986Z,19.6
2023-03-18T03:15:46.469Z,17.0
2023-03-18T03:17:47.389Z,18.5
2023-03-18T03:19:46.423Z,16.1
2023-03-18T03:21:45.738Z,18.8
2023-03-18T03:23:48.141Z,19.2
2023-03-18T03:25:45.262Z,15.9
2023-03-18T03:27:44.818Z,18.7
2023-03-18T03:29:44.704Z,14.6
2023-03-18T03:31:44.322Z,14.6
2023-03-18T03:33:44.589Z,17.4
2023-03-18T03:35:44.144Z,16.1
2023-03-18T03:37:43.563Z,14.7
2023-03-18T03:39:43.652Z,14.8
2023-03-18T03:41:42.893Z,17.0
2023-03-18T03:43:43.702Z,15.1
2023-03-18T03:45:44.064Z,14.1
2023-03-18T03:47:43.109Z,13.8
2023-03-18T03:49:41.803Z,15.3
2023-03-18T03:51:41.591Z,12.4
2023-03-18T03:53:41.302Z,14.5
2023-03-18T03:57:41.324Z,14.2
2023-03-18T04:01:40.310Z,13.6
2023-03-18T04:03:39.935Z,14.1
2023-03-18T04:05:40.529Z,13.1
2023-03-18T04:07:40.263Z,15.2
2023-03-18T04:09:40.224Z,13.8
2023-03-18T04:11:38.711Z,11.8
2023-03-18T04:13:38.813Z,14.5
2023-03-18T04:15:38.290Z,13.7
2023-03-18T04:17:38.264Z,12.1
2023-03-18T04:19:38.456Z,12.9
2023-03-18T04:21:37.933Z,14.1
2023-03-18T04:23:37.583Z,12.6
2023-03-18T04:25:36.787Z,15.8
2023-03-18T04:27:37.660Z,14.0
2023-03-18T04:29:36.423Z,13.2
2023-03-18T04:31:36.315Z,11.7
2023-03-18T04:33:36.334Z,12.8
2023-03-18T04:35:36.605Z,15.0
2023-03-18T04:37:37.293Z,13.7
2023-03-18T04:39:35.192Z,15.2
2023-03-18T04:41:35.454Z,14.3
2023-03-18T04:43:34.272Z,13.6
2023-03-18T04:47:34.962Z,15.9
2023-03-18T04:51:33.276Z,14.3
2023-03-18T04:53:33.157Z,14.4
2023-03-18T04:55:33.257Z,15.2
2023-03-18T04:57:34.577Z,14.6
2023-03-18T04:59:32.710Z,13.6
2023-03-18T05:01:32.950Z,16.9
2023-03-18T05:03:31.370Z,15.7
2023-03-18T05:05:31.415Z,14.1
2023-03-18T05:07:30.969Z,14.7
2023-03-18T05:09:30.507Z,14.7
2023-03-18T05:11:32.272Z,15.6
2023-03-18T05:13:29.907Z,15.6
2023-03-18T05:15:29.871Z,15.6
2023-03-18T05:17:29.570Z,15.6
2023-03-18T05:23:28.735Z,14.0
2023-03-18T05:25:28.071Z,15.5
2023-03-18T05:27:28.776Z,13.7
2023-03-18T05:29:27.846Z,13.1
2023-03-18T05:31:27.335Z,15.0
2023-03-18T05:33:27.449Z,16.1
2023-03-18T05:35:26.782Z,16.2
2023-03-18T05:37:26.647Z,15.4
2023-03-18T05:41:25.989Z,16.1
2023-03-18T05:43:25.785Z,16.2
2023-03-18T05:45:25.401Z,15.5
2023-03-18T05:49:26.266Z,16.1
2023-03-18T05:51:25.465Z,14.5
2023-03-18T05:53:24.049Z,17.8
2023-03-18T05:55:23.630Z,17.0
2023-03-18T05:57:23.441Z,16.1
2023-03-18T06:01:25.849Z,17.4
2023-03-18T06:03:24.138Z,16.5
2023-03-18T06:05:23.392Z,15.7
2023-03-18T06:07:21.781Z,14.6
2023-03-18T06:09:22.374Z,13.4
2023-03-18T06:11:22.345Z,17.4
2023-03-18T06:13:21.596Z,17.5
2023-03-18T06:15:21.630Z,15.9
2023-03-18T06:17:20.640Z,13.6
2023-03-18T06:19:20.958Z,14.7
2023-03-18T06:21:20.018Z,13.4
2023-03-18T06:25:20.798Z,15.6
2023-03-18T06:27:19.032Z,15.0
2023-03-18T06:29:19.055Z,14.5
2023-03-18T06:31:18.893Z,15.3
2023-03-18T06:33:17.882Z,18.2
2023-03-18T06:35:17.897Z,15.9
2023-03-18T06:37:17.607Z,16.9
2023-03-18T06:39:18.029Z,15.3
2023-03-18T06:41:18.532Z,15.9
2023-03-18T06:43:16.866Z,15.7
2023-03-18T06:45:16.312Z,13.1
2023-03-18T06:47:17.085Z,14.6
2023-03-18T06:49:15.739Z,15.4
2023-03-18T06:51:15.228Z,16.8
2023-03-18T06:53:15.322Z,17.8
2023-03-18T06:55:15.722Z,15.5
2023-03-18T06:57:14.297Z,15.9
2023-03-18T06:59:14.478Z,14.9
2023-03-18T07:01:14.306Z,15.7
2023-03-18T07:03:14.874Z,14.5
2023-03-18T07:05:13.738Z,15.2
2023-03-18T07:07:12.749Z,14.8
2023-03-18T07:09:14.228Z,14.1
2023-03-18T07:11:12.258Z,13.8
2023-03-18T07:13:12.404Z,12.8
2023-03-18T07:15:11.960Z,14.9
2023-03-18T07:17:11.451Z,12.8
2023-03-18T07:19:11.337Z,13.6
2023-03-18T07:21:10.828Z,12.2
2023-03-18T07:25:10.835Z,12.1
2023-03-18T07:27:12.256Z,12.9
2023-03-18T07:29:09.621Z,13.4
2023-03-18T07:31:09.343Z,14.2
2023-03-18T07:33:09.167Z,16.1
2023-03-18T07:35:12.964Z,11.5
2023-03-18T07:37:08.774Z,13.2
2023-03-18T07:39:09.173Z,12.0
2023-03-18T07:41:07.752Z,13.5
2023-03-18T07:43:08.257Z,12.6
2023-03-18T07:45:08.454Z,12.1
2023-03-18T07:47:06.989Z,13.7
2023-03-18T07:49:06.864Z,12.6
2023-03-18T07:51:06.554Z,13.6
2023-03-18T07:53:06.569Z,12.1
2023-03-18T07:55:08.133Z,13.1
2023-03-18T07:57:05.995Z,14.2
2023-03-18T07:59:05.244Z,12.3
2023-03-18T08:01:05.576Z,12.8
2023-03-18T08:03:05.032Z,12.7
2023-03-18T08:05:05.936Z,11.4
2023-03-18T08:07:04.420Z,13.5
2023-03-18T08:09:05.192Z,10.3
2023-03-18T08:13:03.613Z,10.6
2023-03-18T08:17:02.962Z,9.8
2023-03-18T08:19:02.889Z,11.2
2023-03-18T08:21:02.764Z,13.5
2023-03-18T08:23:03.428Z,10.0
2023-03-18T08:27:01.855Z,10.0
2023-03-18T08:29:01.404Z,8.5
2023-03-18T08:31:02.431Z,10.3
2023-03-18T08:33:01.811Z,11.8
2023-03-18T08:35:00.879Z,11.5
2023-03-18T08:37:00.382Z,9.3
2023-03-18T08:39:00.872Z,10.1
2023-03-18T08:40:59.805Z,10.1
2023-03-18T08:42:59.865Z,10.1
2023-03-18T08:44:59.376Z,9.8
2023-03-18T08:46:59.343Z,10.0
2023-03-18T08:48:58.946Z,6.7
2023-03-18T08:50:58.752Z,7.9
2023-03-18T08:52:59.542Z,8.1
2023-03-18T08:54:58.120Z,9.3
2023-03-18T08:56:59.646Z,6.9
2023-03-18T08:58:57.503Z,8.9
2023-03-18T09:00:57.555Z,8.1
2023-03-18T09:02:57.298Z,10.2
2023-03-18T09:04:57.642Z,9.3
2023-03-18T09:06:56.703Z,9.2
2023-03-18T09:08:56.758Z,9.1
2023-03-18T09:10:57.145Z,8.5
2023-03-18T09:12:56.416Z,8.2
2023-03-18T09:14:56.586Z,7.9
2023-03-18T09:16:55.732Z,6.9
2023-03-18T09:18:55.553Z,6.7
2023-03-18T09:20:55.633Z,8.0
2023-03-18T09:22:55.263Z,10.0
2023-03-18T09:24:54.610Z,7.2
2023-03-18T09:26:54.726Z,8.9
2023-03-18T09:28:54.305Z,10.0
2023-03-18T09:30:54.682Z,8.8
2023-03-18T09:32:54.141Z,8.1
2023-03-18T09:34:53.576Z,6.1
2023-03-18T09:36:53.316Z,6.2
2023-03-18T09:38:53.398Z,6.6
2023-03-18T09:43:01.479Z,6.9
2023-03-18T09:44:55.750Z,6.0
2023-03-18T09:49:09.038Z,7.0
2023-03-18T09:51:03.339Z,6.3
2023-03-18T09:53:01.085Z,5.2
2023-03-18T09:54:56.671Z,5.7
2023-03-18T09:58:55.701Z,6.1
2023-03-18T10:00:54.442Z,19.9
2023-03-18T10:02:56.615Z,7.3
2023-03-18T10:04:55.284Z,5.4
2023-03-18T10:09:00.268Z,5.3
2023-03-18T10:10:49.969Z,6.5
2023-03-18T10:15:00.630Z,6.2
2023-03-18T10:17:00.675Z,5.6
2023-03-18T10:18:48.922Z,5.4
2023-03-18T10:21:00.864Z,7.3
2023-03-18T10:22:59.065Z,5.8
2023-03-18T10:24:58.242Z,5.1
2023-03-18T10:26:51.552Z,5.4
2023-03-18T10:30:57.944Z,6.2
2023-03-18T10:33:03.036Z,5.4
2023-03-18T10:34:59.291Z,5.7
2023-03-18T10:36:50.596Z,8.3
2023-03-18T10:38:48.742Z,5.4
2023-03-18T10:40:46.988Z,5.9
2023-03-18T10:46:47.073Z,5.4
2023-03-18T10:48:49.233Z,5.4
2023-03-18T10:50:54.928Z,6.2
2023-03-18T10:52:52.558Z,6.1
2023-03-18T10:54:49.348Z,5.4
2023-03-18T10:56:44.975Z,4.9
2023-03-18T11:00:45.171Z,6.2
2023-03-18T11:04:49.656Z,5.6
2023-03-18T11:06:47.865Z,4.8
2023-03-18T11:10:45.144Z,5.4
2023-03-18T11:16:49.226Z,7.3
2023-03-18T11:18:45.361Z,5.8
2023-03-18T11:22:46.821Z,6.3
2023-03-18T11:24:42.795Z,5.7
2023-03-18T11:26:46.182Z,4.6
2023-03-18T11:28:41.877Z,4.7
2023-03-18T11:32:52.123Z,5.9
2023-03-18T11:34:41.065Z,5.0
2023-03-18T11:36:41.082Z,5.2
2023-03-18T11:38:41.617Z,6.1
2023-03-18T11:40:41.034Z,4.7
2023-03-18T11:44:39.853Z,7.3
2023-03-18T11:46:44.900Z,9.5
2023-03-18T11:48:42.134Z,6.1
2023-03-18T11:52:46.254Z,5.0
2023-03-18T11:55:01.362Z,5.8
2023-03-18T11:58:48.061Z,8.0
2023-03-18T12:00:45.395Z,6.2
2023-03-18T12:04:51.615Z,6.3
2023-03-18T12:06:46.047Z,5.8
2023-03-18T12:08:49.276Z,6.3
2023-03-18T12:10:40.602Z,5.4
2023-03-18T12:12:52.612Z,6.8
2023-03-18T12:14:43.702Z,5.3
2023-03-18T12:16:50.008Z,6.6
2023-03-18T12:18:50.634Z,5.9
2023-03-18T12:20:46.952Z,7.8
2023-03-18T12:22:53.431Z,7.1
2023-03-18T12:24:53.628Z,5.0
2023-03-18T12:26:45.661Z,7.9
2023-03-18T12:28:46.424Z,4.8
2023-03-18T12:30:48.234Z,5.9
2023-03-18T12:32:40.383Z,6.9
2023-03-18T12:34:46.666Z,7.1
2023-03-18T12:38:52.311Z,5.1
2023-03-18T12:40:47.828Z,5.2
2023-03-18T12:44:50.778Z,7.3
2023-03-18T12:46:39.387Z,4.6
2023-03-18T12:48:44.375Z,3.9
2023-03-18T12:50:37.682Z,4.2
2023-03-18T12:52:39.233Z,3.5
2023-03-18T12:56:40.554Z,4.5
2023-03-18T13:00:39.135Z,3.3
2023-03-18T13:02:42.567Z,3.9
2023-03-18T13:04:37.597Z,4.4
2023-03-18T13:06:38.409Z,3.5
2023-03-18T13:08:51.333Z,5.2
2023-03-18T13:12:35.158Z,3.0
2023-03-18T13:14:43.693Z,5.1
2023-03-18T13:16:33.681Z,3.5
2023-03-18T13:18:38.594Z,4.0
2023-03-18T13:20:34.825Z,3.8
2023-03-18T13:22:50.673Z,2.5
2023-03-18T13:24:43.150Z,4.0
2023-03-18T13:26:46.321Z,4.1
2023-03-18T13:28:41.671Z,4.0
2023-03-18T13:30:40.610Z,4.7
2023-03-18T13:32:46.787Z,3.7
2023-03-18T13:34:47.318Z,4.1
2023-03-18T13:36:49.068Z,5.0
2023-03-18T13:42:31.191Z,3.2
2023-03-18T13:44:35.545Z,4.6
2023-03-18T13:46:31.996Z,4.9
2023-03-18T13:48:31.293Z,5.0
2023-03-18T13:50:33.038Z,4.2
2023-03-18T13:54:33.878Z,5.9
2023-03-18T13:56:32.845Z,6.6
2023-03-18T13:58:31.760Z,4.7
2023-03-18T14:00:39.678Z,4.7
2023-03-18T14:02:40.501Z,5.1
2023-03-18T14:04:30.439Z,3.9
2023-03-18T14:06:45.361Z,4.5
2023-03-18T14:10:26.711Z,3.8
2023-03-18T14:14:39.529Z,5.5
2023-03-18T14:16:28.899Z,6.0
2023-03-18T14:18:28.253Z,5.1
2023-03-18T14:20:37.566Z,5.7
2023-03-18T14:22:34.652Z,6.1
2023-03-18T14:32:36.461Z,3.8
2023-03-18T14:34:27.076Z,5.7
2023-03-18T14:36:44.852Z,4.2
2023-03-18T14:40:24.718Z,4.7
2023-03-18T14:42:28.429Z,7.3
2023-03-18T14:44:33.258Z,4.7
2023-03-18T14:46:30.888Z,4.7
2023-03-18T14:48:28.495Z,5.8
2023-03-18T14:56:27.975Z,3.8
2023-03-18T14:58:23.241Z,7.4
2023-03-18T15:02:27.183Z,5.1
2023-03-18T15:04:24.695Z,7.4
2023-03-18T15:06:25.878Z,4.4
2023-03-18T15:08:32.032Z,6.4
2023-03-18T15:12:26.841Z,5.9
2023-03-18T15:14:25.380Z,5.9
2023-03-18T15:16:24.122Z,4.1
2023-03-18T15:18:27.569Z,5.6
2023-03-18T15:20:22.443Z,5.7
2023-03-18T15:22:27.265Z,6.1
2023-03-18T15:26:24.508Z,5.1
2023-03-18T15:34:22.421Z,4.5
2023-03-18T15:36:20.966Z,6.4
2023-03-18T15:38:26.305Z,4.7
2023-03-18T15:40:28.759Z,5.2
2023-03-18T15:44:25.293Z,5.4
2023-03-18T15:46:26.211Z,6.3
2023-03-18T15:48:23.895Z,4.1
2023-03-18T15:50:25.261Z,5.3
2023-03-18T15:52:24.147Z,5.1
2023-03-18T15:56:25.431Z,4.6
2023-03-18T15:58:22.642Z,5.1
2023-03-18T16:00:19.535Z,6.0
2023-03-18T16:02:18.624Z,5.2
2023-03-18T16:04:19.044Z,6.2
2023-03-18T16:06:18.027Z,5.8
2023-03-18T16:08:20.051Z,6.3
2023-03-18T16:10:21.695Z,4.8
2023-03-18T16:12:19.677Z,5.5
2023-03-18T16:16:23.992Z,4.6
2023-03-18T16:18:17.189Z,4.0
2023-03-18T16:20:19.564Z,4.7
2023-03-18T16:22:16.978Z,4.7
2023-03-18T16:26:17.782Z,4.3
2023-03-18T16:28:20.143Z,5.5
2023-03-18T16:30:19.042Z,3.1
2023-03-18T16:32:16.629Z,4.6
2023-03-18T16:34:20.512Z,4.0
2023-03-18T16:36:24.561Z,3.9
2023-03-18T16:38:17.105Z,5.5
2023-03-18T16:40:16.275Z,3.9
2023-03-18T16:42:15.001Z,4.3
2023-03-18T16:46:16.376Z,4.9
2023-03-18T16:48:17.113Z,5.0
2023-03-18T16:50:16.904Z,7.5
2023-03-18T16:52:14.226Z,5.7
2023-03-18T16:54:18.012Z,5.4
2023-03-18T16:56:16.518Z,5.3
2023-03-18T16:58:16.861Z,6.1
2023-03-18T17:00:18.472Z,6.0
2023-03-18T17:02:30.124Z,6.8
2023-03-18T17:04:19.861Z,5.6
2023-03-18T17:06:13.859Z,7.7
2023-03-18T17:08:13.204Z,6.1
2023-03-18T17:10:18.397Z,7.3
2023-03-18T17:12:15.020Z,5.9
2023-03-18T17:14:26.659Z,5.1
2023-03-18T17:16:17.189Z,6.1
2023-03-18T17:18:13.897Z,5.1
2023-03-18T17:20:15.680Z,6.3
2023-03-18T17:22:20.260Z,7.6
2023-03-18T17:24:11.244Z,4.9
2023-03-18T17:26:14.035Z,5.8
2023-03-18T17:28:17.654Z,5.6
2023-03-18T17:30:20.165Z,5.1
2023-03-18T17:32:11.596Z,5.2
2023-03-18T17:34:12.801Z,4.8
2023-03-18T17:36:10.109Z,10.6
2023-03-18T17:38:10.962Z,5.5
2023-03-18T17:40:12.324Z,8.3
2023-03-18T17:42:25.642Z,5.5
2023-03-18T17:44:23.520Z,4.7
2023-03-18T17:48:15.161Z,6.8
2023-03-18T17:50:13.096Z,5.3
2023-03-18T17:52:10.257Z,6.0
2023-03-18T17:54:11.400Z,5.2
2023-03-18T17:56:11.284Z,4.8
2023-03-18T17:58:16.949Z,5.9
2023-03-18T18:00:13.091Z,3.6
2023-03-18T18:02:13.799Z,1.2
2023-03-18T18:06:14.883Z,2.6
2023-03-18T18:08:12.880Z,3.2
2023-03-18T18:10:07.730Z,1.4
2023-03-18T18:12:13.462Z,1.6
2023-03-18T18:14:15.571Z,1.3
2023-03-18T18:16:06.040Z,0.6
2023-03-18T18:18:12.895Z,2.0
2023-03-18T18:20:07.127Z,2.4
2023-03-18T18:22:08.911Z,3.1
2023-03-18T18:26:07.058Z,3.0
2023-03-18T18:30:05.043Z,1.6
2023-03-18T18:32:04.736Z,2.4
2023-03-18T18:36:05.964Z,1.3
2023-03-18T18:38:04.385Z,2.7
2023-03-18T18:40:04.411Z,3.1
2023-03-18T18:42:03.445Z,2.6
2023-03-18T18:46:02.590Z,2.0
2023-03-18T18:48:10.134Z,1.9
2023-03-18T18:54:02.054Z,1.8
2023-03-18T18:56:12.122Z,1.5
2023-03-18T19:02:02.417Z,1.7
2023-03-18T19:04:01.581Z,2.5
2023-03-18T19:06:01.300Z,5.2
2023-03-18T19:08:01.423Z,3.7
2023-03-18T19:11:59.484Z,3.1
2023-03-18T19:14:16.504Z,4.9
2023-03-18T19:16:01.957Z,9.2
2023-03-18T19:17:59.180Z,9.2
2023-03-18T19:19:58.929Z,9.0
2023-03-18T19:21:59.365Z,9.7
2023-03-18T19:23:58.362Z,9.1
2023-03-18T19:25:59.060Z,8.9
2023-03-18T19:29:59.431Z,5.8
2023-03-18T19:31:57.439Z,6.4
2023-03-18T19:33:58.683Z,6.2
2023-03-18T19:35:56.631Z,5.4
2023-03-18T19:37:56.676Z,3.3
2023-03-18T19:39:56.766Z,5.5
2023-03-18T19:41:55.963Z,4.8
2023-03-18T19:44:00.823Z,3.8
2023-03-18T19:45:55.880Z,5.5
2023-03-18T19:47:55.145Z,3.6
2023-03-18T19:49:55.110Z,5.9
2023-03-18T19:51:55.099Z,4.3
2023-03-18T19:53:54.579Z,3.4
2023-03-18T19:55:54.407Z,5.4
2023-03-18T19:57:55.918Z,3.3
2023-03-18T19:59:56.204Z,4.2
2023-03-18T20:01:53.898Z,3.4
2023-03-18T20:03:57.186Z,6.3
2023-03-18T20:05:53.112Z,8.3
2023-03-18T20:07:52.628Z,8.0
2023-03-18T20:09:53.232Z,8.0
2023-03-18T20:11:58.608Z,6.5
2023-03-18T20:13:52.873Z,5.0
2023-03-18T20:15:51.473Z,7.0
2023-03-18T20:17:52.556Z,5.5
2023-03-18T20:19:50.975Z,6.1
2023-03-18T20:21:50.869Z,7.2
2023-03-18T20:23:52.431Z,4.4
2023-03-18T20:25:52.715Z,4.9
2023-03-18T20:29:50.383Z,3.8
2023-03-18T20:33:49.286Z,3.8
2023-03-18T20:35:51.600Z,2.7
2023-03-18T20:37:48.912Z,4.9
2023-03-18T20:39:49.500Z,4.0
2023-03-18T20:41:49.415Z,7.0
2023-03-18T20:43:49.122Z,6.5
2023-03-18T20:45:49.337Z,5.3
2023-03-18T20:47:48.587Z,5.5
2023-03-18T20:49:47.323Z,5.4
2023-03-18T20:51:47.614Z,5.4
2023-03-18T20:53:47.524Z,6.4
2023-03-18T20:55:47.041Z,8.5
2023-03-18T20:57:47.060Z,6.4
2023-03-18T20:59:46.561Z,7.4
2023-03-18T21:01:46.335Z,6.6
2023-03-18T21:03:45.801Z,8.0
2023-03-18T21:05:46.476Z,6.9
2023-03-18T21:09:44.964Z,8.3
2023-03-18T21:11:45.244Z,5.5
2023-03-18T21:13:44.565Z,5.5
2023-03-18T21:15:44.377Z,4.8
2023-03-18T21:17:44.606Z,4.9
2023-03-18T21:21:43.534Z,3.7
2023-03-18T21:23:43.372Z,4.0
2023-03-18T21:27:42.943Z,4.0
2023-03-18T21:29:42.707Z,2.7
2023-03-18T21:31:42.631Z,3.4
2023-03-18T21:33:44.086Z,4.2
2023-03-18T21:35:42.005Z,3.6
2023-03-18T21:39:41.939Z,2.8
2023-03-18T21:41:41.219Z,2.2
2023-03-18T21:43:40.757Z,5.3
2023-03-18T21:45:40.509Z,2.9
2023-03-18T21:47:40.607Z,3.2
2023-03-18T21:49:41.251Z,4.4
2023-03-18T21:51:40.439Z,3.9
2023-03-18T21:53:39.650Z,3.2
2023-03-18T21:55:39.541Z,2.9
2023-03-18T21:57:38.990Z,3.7
2023-03-18T21:59:38.847Z,3.7
2023-03-18T22:01:38.609Z,4.1
2023-03-18T22:05:38.197Z,4.8
2023-03-18T22:07:37.928Z,5.2
2023-03-18T22:09:38.028Z,3.9
2023-03-18T22:11:37.470Z,6.2
2023-03-18T22:13:36.982Z,5.3
2023-03-18T22:15:38.725Z,4.9
2023-03-18T22:17:38.963Z,5.0
2023-03-18T22:19:36.441Z,6.5
2023-03-18T22:21:36.045Z,6.1
2023-03-18T22:23:38.914Z,4.8
2023-03-18T22:25:36.407Z,6.2
2023-03-18T22:27:35.323Z,5.1
2023-03-18T22:31:36.166Z,6.3
2023-03-18T22:35:34.828Z,6.9
2023-03-18T22:37:34.130Z,8.2
2023-03-18T22:39:33.795Z,12.2
2023-03-18T22:41:33.571Z,12.0
2023-03-18T22:43:36.340Z,12.1
2023-03-18T22:45:33.360Z,11.9
2023-03-18T22:47:32.976Z,14.4
2023-03-18T22:49:32.575Z,16.4
2023-03-18T22:51:37.355Z,17.2
2023-03-18T22:53:34.924Z,15.6
2023-03-18T22:55:34.915Z,16.0
2023-03-18T22:57:31.550Z,17.3
2023-03-18T22:59:31.510Z,17.0
2023-03-18T23:01:31.281Z,17.8
2023-03-18T23:03:33.247Z,17.1
2023-03-18T23:05:31.872Z,17.2
2023-03-18T23:07:32.130Z,17.2
2023-03-18T23:11:30.026Z,15.9
2023-03-18T23:13:34.006Z,15.8
2023-03-18T23:15:29.244Z,13.1
2023-03-18T23:17:29.865Z,15.1
2023-03-18T23:19:28.741Z,12.9
2023-03-18T23:21:28.423Z,11.4
2023-03-18T23:25:28.000Z,12.5
2023-03-18T23:27:28.049Z,11.1
2023-03-18T23:29:27.258Z,10.8
2023-03-18T23:31:27.156Z,10.2
2023-03-18T23:33:26.666Z,10.2
2023-03-18T23:35:26.697Z,11.8
2023-03-18T23:37:26.356Z,9.8
2023-03-18T23:39:26.308Z,9.0
2023-03-18T23:41:25.549Z,9.6
2023-03-18T23:43:25.817Z,7.8
2023-03-18T23:45:26.780Z,9.1
2023-03-18T23:47:25.114Z,8.9
2023-03-18T23:49:27.258Z,8.6
2023-03-18T23:51:24.242Z,8.2
2023-03-18T23:53:24.029Z,8.1
2023-03-18T23:55:33.992Z,6.6
2023-03-18T23:57:23.415Z,7.7
2023-03-18T23:59:23.174Z,5.9
